createdAt,value
2023-01-30T00:01:29.810Z,88.16
2023-01-30T00:03:56.426Z,88.37
2023-01-30T00:06:23.340Z,88.52
2023-01-30T00:08:49.836Z,88.66
2023-01-30T00:11:17.855Z,90.05
2023-01-30T00:13:44.468Z,90.69
2023-01-30T00:16:11.736Z,91.98
2023-01-30T00:18:40.160Z,92.00
2023-01-30T00:21:09.047Z,91.98
2023-01-30T00:23:38.571Z,92.52
2023-01-30T00:26:09.888Z,92.99
2023-01-30T00:28:40.146Z,92.86
2023-01-30T00:31:07.470Z,93.13
2023-01-30T00:33:36.380Z,93.27
2023-01-30T00:36:03.193Z,92.65
2023-01-30T00:38:29.756Z,92.16
2023-01-30T00:40:56.245Z,91.54
2023-01-30T00:43:41.234Z,90.44
2023-01-30T00:46:58.604Z,91.45
2023-01-30T00:49:25.111Z,91.94
2023-01-30T00:51:51.756Z,91.65
2023-01-30T00:54:18.230Z,92.21
2023-01-30T00:56:44.713Z,92.33
2023-01-30T00:59:11.261Z,92.63
2023-01-30T01:01:38.339Z,92.77
2023-01-30T01:04:08.900Z,92.23
2023-01-30T01:06:35.441Z,94.07
2023-01-30T01:09:02.171Z,95.47
2023-01-30T01:11:28.711Z,96.88
2023-01-30T01:14:00.460Z,97.39
2023-01-30T01:16:28.807Z,98.28
2023-01-30T01:18:55.716Z,98.54
2023-01-30T01:21:23.301Z,98.44
2023-01-30T01:23:55.705Z,97.90
2023-01-30T01:26:23.235Z,99.14
2023-01-30T01:28:50.037Z,100.00
2023-01-30T01:31:17.335Z,100.00
2023-01-30T01:33:44.070Z,100.00
2023-01-30T01:36:10.686Z,100.00
2023-01-30T01:38:37.648Z,99.83
2023-01-30T01:41:07.700Z,100.00
2023-01-30T01:43:37.414Z,100.00
2023-01-30T01:46:10.627Z,100.00
2023-01-30T01:48:52.281Z,99.40
2023-01-30T01:51:24.470Z,100.00
2023-01-30T01:54:08.682Z,100.00
2023-01-30T01:56:38.653Z,99.33
2023-01-30T01:59:13.630Z,97.06
2023-01-30T02:01:42.245Z,95.25
2023-01-30T02:04:11.958Z,94.53
2023-01-30T02:06:42.165Z,94.98
2023-01-30T02:09:10.973Z,94.82
2023-01-30T02:11:47.740Z,96.31
2023-01-30T02:14:15.933Z,96.25
2023-01-30T02:16:44.943Z,96.54
2023-01-30T02:19:25.767Z,96.84
2023-01-30T02:22:05.315Z,97.88
2023-01-30T02:24:57.794Z,99.34
2023-01-30T02:27:41.744Z,100.00
2023-01-30T02:30:27.873Z,100.00
2023-01-30T02:33:00.299Z,100.00
2023-01-30T02:35:44.103Z,100.00
2023-01-30T02:38:27.119Z,100.00
2023-01-30T02:41:02.575Z,100.00
2023-01-30T02:43:59.941Z,100.00
2023-01-30T02:46:54.904Z,100.00
2023-01-30T02:49:30.773Z,100.00
2023-01-30T02:52:00.278Z,100.00
2023-01-30T02:54:27.034Z,100.00
2023-01-30T02:56:58.045Z,100.00
2023-01-30T02:59:36.965Z,100.00
2023-01-30T03:02:41.102Z,100.00
2023-01-30T03:05:20.328Z,98.05
2023-01-30T03:08:17.432Z,96.48
2023-01-30T03:10:53.122Z,96.61
2023-01-30T03:13:27.647Z,98.13
2023-01-30T03:16:00.032Z,99.43
2023-01-30T03:18:26.656Z,100.00
2023-01-30T03:20:53.659Z,100.00
2023-01-30T03:23:20.122Z,100.00
2023-01-30T03:25:48.700Z,100.00
2023-01-30T03:28:20.439Z,100.00
2023-01-30T03:30:47.069Z,100.00
2023-01-30T03:33:13.583Z,100.00
2023-01-30T03:35:40.556Z,99.44
2023-01-30T03:38:07.194Z,99.45
2023-01-30T03:40:33.681Z,98.41
2023-01-30T03:43:00.181Z,97.49
2023-01-30T03:45:26.695Z,97.37
2023-01-30T03:47:53.271Z,96.96
2023-01-30T03:50:19.851Z,96.99
2023-01-30T03:52:46.374Z,97.41
2023-01-30T03:55:12.922Z,96.19
2023-01-30T03:57:39.353Z,95.55
2023-01-30T04:00:06.568Z,95.37
2023-01-30T04:02:33.056Z,95.54
2023-01-30T04:04:59.540Z,95.80
2023-01-30T04:07:28.999Z,94.71
2023-01-30T04:09:55.539Z,95.26
2023-01-30T04:12:22.131Z,96.20
2023-01-30T04:14:48.649Z,96.45
2023-01-30T04:17:15.117Z,95.78
2023-01-30T04:19:41.587Z,96.21
2023-01-30T04:22:08.109Z,96.08
2023-01-30T04:24:34.578Z,97.06
2023-01-30T04:27:01.003Z,97.02
2023-01-30T04:29:27.492Z,94.71
2023-01-30T04:31:54.000Z,94.84
2023-01-30T04:34:20.438Z,95.09
2023-01-30T04:36:46.956Z,94.19
2023-01-30T04:39:13.469Z,93.49
2023-01-30T04:41:40.024Z,93.54
2023-01-30T04:44:06.612Z,94.36
2023-01-30T04:46:33.065Z,94.33
2023-01-30T04:48:59.554Z,95.02
2023-01-30T04:51:26.067Z,95.14
2023-01-30T04:53:52.486Z,94.39
2023-01-30T04:56:21.346Z,93.35
2023-01-30T04:58:47.760Z,93.59
2023-01-30T05:01:33.914Z,95.32
2023-01-30T05:04:00.599Z,96.84
2023-01-30T05:06:27.635Z,97.40
2023-01-30T05:08:56.037Z,97.16
2023-01-30T05:11:24.109Z,97.63
2023-01-30T05:13:51.651Z,97.13
2023-01-30T05:16:19.692Z,96.91
2023-01-30T05:18:46.292Z,97.13
2023-01-30T05:21:25.921Z,96.44
2023-01-30T05:23:56.248Z,95.92
2023-01-30T05:26:23.048Z,94.90
2023-01-30T05:28:57.269Z,93.03
2023-01-30T05:31:24.372Z,93.87
2023-01-30T05:33:55.364Z,94.18
2023-01-30T05:36:23.943Z,94.54
2023-01-30T05:38:50.505Z,94.41
2023-01-30T05:41:17.746Z,93.65
2023-01-30T05:43:44.690Z,94.07
2023-01-30T05:46:12.680Z,94.31
2023-01-30T05:48:39.549Z,95.79
2023-01-30T05:51:06.421Z,96.95
2023-01-30T05:53:41.769Z,96.31
2023-01-30T05:56:09.506Z,96.55
2023-01-30T05:58:36.042Z,96.13
2023-01-30T06:01:05.647Z,96.75
2023-01-30T06:03:33.012Z,97.58
2023-01-30T06:06:02.496Z,98.09
2023-01-30T06:08:30.062Z,97.82
2023-01-30T06:11:08.522Z,97.39
2023-01-30T06:13:36.380Z,98.58
2023-01-30T06:16:03.499Z,98.59
2023-01-30T06:18:31.098Z,98.77
2023-01-30T06:20:58.199Z,98.97
2023-01-30T06:23:25.121Z,98.96
2023-01-30T06:25:57.211Z,99.25
2023-01-30T06:28:26.071Z,98.56
2023-01-30T06:30:55.410Z,97.90
2023-01-30T06:33:24.981Z,96.78
2023-01-30T06:35:54.432Z,96.20
2023-01-30T06:38:21.154Z,95.88
2023-01-30T06:40:49.749Z,95.39
2023-01-30T06:43:17.103Z,94.71
2023-01-30T06:45:44.154Z,94.94
2023-01-30T06:48:11.007Z,95.47
2023-01-30T06:50:37.752Z,95.16
2023-01-30T06:53:07.049Z,95.49
2023-01-30T06:55:35.840Z,95.59
2023-01-30T06:58:10.023Z,95.29
2023-01-30T07:00:39.640Z,95.25
2023-01-30T07:03:10.441Z,94.81
2023-01-30T07:05:39.328Z,94.04
2023-01-30T07:08:06.043Z,94.01
2023-01-30T07:10:32.901Z,94.55
2023-01-30T07:12:59.927Z,93.90
2023-01-30T07:15:26.677Z,93.77
2023-01-30T07:17:57.295Z,93.84
2023-01-30T07:20:27.346Z,93.80
2023-01-30T07:22:57.757Z,93.81
2023-01-30T07:25:28.674Z,92.39
2023-01-30T07:28:02.127Z,89.17
2023-01-30T07:30:31.812Z,89.09
2023-01-30T07:33:00.166Z,89.03
2023-01-30T07:35:30.395Z,88.87
2023-01-30T07:37:57.266Z,90.24
2023-01-30T07:40:26.880Z,90.94
2023-01-30T07:43:05.175Z,92.77
2023-01-30T07:45:39.958Z,92.03
2023-01-30T07:48:07.790Z,92.96
2023-01-30T07:50:34.557Z,94.35
2023-01-30T07:53:04.606Z,94.57
2023-01-30T07:55:31.472Z,95.12
2023-01-30T07:57:58.389Z,95.15
2023-01-30T08:00:25.349Z,94.63
2023-01-30T08:02:54.806Z,93.30
2023-01-30T08:05:24.140Z,91.42
2023-01-30T08:07:51.060Z,90.94
2023-01-30T08:10:18.298Z,91.24
2023-01-30T08:12:47.144Z,90.98
2023-01-30T08:15:13.975Z,90.32
2023-01-30T08:17:40.886Z,90.62
2023-01-30T08:20:08.565Z,88.33
2023-01-30T08:22:35.465Z,89.09
2023-01-30T08:25:02.321Z,89.45
2023-01-30T08:27:29.029Z,89.30
2023-01-30T08:29:55.860Z,89.81
2023-01-30T08:32:25.364Z,88.65
2023-01-30T08:34:54.013Z,89.15
2023-01-30T08:37:21.157Z,89.04
2023-01-30T08:39:50.609Z,88.25
2023-01-30T08:42:17.309Z,87.93
2023-01-30T08:44:44.061Z,86.73
2023-01-30T08:47:11.047Z,86.39
2023-01-30T08:49:37.709Z,86.41
2023-01-30T08:52:04.271Z,85.58
2023-01-30T08:54:36.302Z,84.01
2023-01-30T08:57:02.727Z,82.55
2023-01-30T08:59:29.150Z,83.86
2023-01-30T09:01:55.650Z,83.49
2023-01-30T09:04:24.915Z,82.03
2023-01-30T09:06:54.425Z,80.24
2023-01-30T09:09:20.959Z,79.64
2023-01-30T09:11:48.245Z,81.22
2023-01-30T09:14:19.890Z,81.84
2023-01-30T09:16:56.435Z,81.23
2023-01-30T09:19:27.744Z,79.47
2023-01-30T09:21:57.074Z,79.38
2023-01-30T09:24:27.771Z,79.10
2023-01-30T09:26:58.876Z,78.64
2023-01-30T09:29:28.492Z,80.21
2023-01-30T09:31:56.586Z,80.41
2023-01-30T09:34:28.636Z,80.35
2023-01-30T09:36:56.708Z,80.28
2023-01-30T09:39:24.909Z,81.08
2023-01-30T09:42:20.666Z,81.05
2023-01-30T09:45:16.178Z,81.25
2023-01-30T09:48:07.027Z,79.43
2023-01-30T09:50:45.675Z,78.50
2023-01-30T09:53:34.429Z,80.19
2023-01-30T09:56:01.757Z,78.30
2023-01-30T09:58:55.129Z,77.48
2023-01-30T10:01:57.233Z,79.01
2023-01-30T10:04:39.040Z,79.21
2023-01-30T10:08:08.615Z,78.31
2023-01-30T10:10:40.012Z,76.17
2023-01-30T10:13:15.942Z,76.15
2023-01-30T10:15:51.026Z,76.21
2023-01-30T10:18:51.030Z,74.32
2023-01-30T10:21:36.418Z,73.41
2023-01-30T10:24:37.059Z,72.25
2023-01-30T10:27:10.263Z,72.98
2023-01-30T10:29:39.871Z,71.98
2023-01-30T10:32:18.581Z,70.30
2023-01-30T10:34:50.301Z,72.11
2023-01-30T10:37:42.495Z,71.68
2023-01-30T10:40:25.339Z,71.33
2023-01-30T10:43:12.136Z,69.98
2023-01-30T10:45:54.517Z,69.88
2023-01-30T10:48:49.461Z,69.56
2023-01-30T10:51:55.946Z,69.33
2023-01-30T10:54:45.592Z,69.93
2023-01-30T10:57:30.291Z,70.03
2023-01-30T11:00:10.539Z,69.47
2023-01-30T11:03:05.186Z,69.17
2023-01-30T11:05:45.289Z,67.83
2023-01-30T11:08:19.644Z,67.01
2023-01-30T11:10:46.270Z,66.33
2023-01-30T11:13:32.446Z,63.91
2023-01-30T11:16:06.621Z,62.31
2023-01-30T11:19:17.689Z,63.26
2023-01-30T11:21:34.926Z,64.34
2023-01-30T11:24:17.172Z,65.51
2023-01-30T11:26:47.726Z,64.07
2023-01-30T11:29:37.909Z,64.31
2023-01-30T11:32:11.648Z,64.95
2023-01-30T11:34:38.154Z,64.00
2023-01-30T11:37:41.700Z,65.65
2023-01-30T11:40:25.267Z,65.92
2023-01-30T11:43:04.481Z,65.64
2023-01-30T11:45:38.042Z,66.85
2023-01-30T11:48:31.647Z,69.35
2023-01-30T11:51:04.339Z,67.77
2023-01-30T11:53:39.852Z,67.65
2023-01-30T11:56:15.823Z,67.82
2023-01-30T11:58:46.290Z,66.49
2023-01-30T12:01:14.168Z,65.03
2023-01-30T12:03:54.352Z,65.43
2023-01-30T12:06:33.162Z,65.48
2023-01-30T12:09:00.339Z,64.99
2023-01-30T12:11:45.260Z,66.16
2023-01-30T12:14:37.177Z,66.69
2023-01-30T12:17:26.687Z,66.02
2023-01-30T12:20:00.177Z,67.17
2023-01-30T12:22:38.406Z,66.36
2023-01-30T12:25:21.106Z,67.79
2023-01-30T12:30:43.573Z,67.77
2023-01-30T12:33:15.391Z,67.88
2023-01-30T12:36:00.622Z,68.04
2023-01-30T12:38:36.454Z,69.10
2023-01-30T12:41:08.929Z,68.04
2023-01-30T12:44:05.186Z,68.54
2023-01-30T12:46:40.193Z,67.72
2023-01-30T12:49:25.088Z,68.91
2023-01-30T12:52:04.294Z,68.94
2023-01-30T12:54:56.448Z,69.31
2023-01-30T12:57:35.133Z,70.33
2023-01-30T13:00:36.994Z,70.81
2023-01-30T13:03:35.275Z,70.76
2023-01-30T13:06:20.008Z,71.16
2023-01-30T13:08:56.366Z,70.85
2023-01-30T13:11:40.537Z,69.70
2023-01-30T13:14:28.786Z,70.84
2023-01-30T13:17:03.787Z,70.74
2023-01-30T13:19:44.173Z,71.26
2023-01-30T13:22:19.585Z,71.63
2023-01-30T13:25:25.189Z,70.06
2023-01-30T13:27:58.195Z,70.45
2023-01-30T13:30:27.653Z,69.99
2023-01-30T13:33:00.933Z,70.32
2023-01-30T13:35:46.839Z,70.14
2023-01-30T13:38:22.384Z,69.26
2023-01-30T13:40:51.164Z,68.38
2023-01-30T13:43:30.400Z,68.15
2023-01-30T13:46:02.858Z,65.90
2023-01-30T13:48:57.280Z,66.38
2023-01-30T13:51:26.704Z,66.49
2023-01-30T13:54:26.819Z,66.45
2023-01-30T13:57:12.972Z,66.13
2023-01-30T14:00:16.773Z,65.56
2023-01-30T14:03:10.572Z,65.83
2023-01-30T14:05:52.801Z,66.43
2023-01-30T14:08:27.754Z,67.10
2023-01-30T14:10:56.563Z,67.70
2023-01-30T14:13:27.677Z,71.23
2023-01-30T14:16:01.040Z,67.25
2023-01-30T14:18:36.591Z,66.96
2023-01-30T14:21:20.260Z,67.04
2023-01-30T14:24:04.876Z,66.48
2023-01-30T14:26:53.268Z,65.09
2023-01-30T14:29:37.979Z,65.25
2023-01-30T14:32:14.123Z,65.50
2023-01-30T14:34:50.233Z,65.96
2023-01-30T14:37:35.332Z,66.43
2023-01-30T14:40:03.457Z,66.56
2023-01-30T14:42:31.329Z,65.40
2023-01-30T14:45:02.387Z,65.86
2023-01-30T14:47:37.562Z,66.29
2023-01-30T14:50:23.062Z,66.45
2023-01-30T14:52:55.269Z,67.57
2023-01-30T14:55:28.641Z,67.46
2023-01-30T14:58:02.266Z,67.75
2023-01-30T15:00:38.169Z,67.31
2023-01-30T15:03:16.894Z,66.59
2023-01-30T15:05:45.930Z,67.06
2023-01-30T15:08:20.693Z,67.62
2023-01-30T15:11:01.904Z,67.36
2023-01-30T15:13:31.150Z,68.97
2023-01-30T15:16:15.624Z,68.74
2023-01-30T15:19:05.263Z,67.62
2023-01-30T15:22:09.067Z,67.84
2023-01-30T15:25:18.240Z,68.44
2023-01-30T15:28:04.954Z,69.55
2023-01-30T15:30:57.062Z,69.43
2023-01-30T15:33:31.561Z,69.14
2023-01-30T15:36:17.172Z,70.75
2023-01-30T15:38:43.713Z,70.82
2023-01-30T15:41:10.912Z,71.30
2023-01-30T15:44:03.362Z,73.69
2023-01-30T15:46:35.880Z,72.35
2023-01-30T15:49:10.475Z,72.48
2023-01-30T15:51:38.084Z,72.28
2023-01-30T15:54:10.570Z,72.65
2023-01-30T15:56:39.892Z,73.27
2023-01-30T15:59:07.168Z,73.68
2023-01-30T16:01:34.068Z,72.64
2023-01-30T16:04:00.716Z,72.97
2023-01-30T16:06:34.719Z,73.12
2023-01-30T16:09:21.875Z,72.96
2023-01-30T16:11:48.449Z,73.48
2023-01-30T16:14:19.149Z,74.23
2023-01-30T16:16:52.263Z,74.05
2023-01-30T16:19:30.390Z,74.15
2023-01-30T16:22:17.155Z,85.47
2023-01-30T16:24:47.807Z,86.54
2023-01-30T16:27:21.834Z,79.78
2023-01-30T16:29:53.120Z,78.27
2023-01-30T16:32:26.009Z,77.86
2023-01-30T16:35:36.006Z,78.58
2023-01-30T16:38:03.355Z,78.33
2023-01-30T16:40:44.415Z,77.66
2023-01-30T16:43:23.509Z,78.41
2023-01-30T16:45:52.721Z,77.41
2023-01-30T16:48:20.783Z,76.84
2023-01-30T16:51:00.906Z,77.61
2023-01-30T16:53:33.969Z,77.35
2023-01-30T16:56:10.734Z,77.11
2023-01-30T16:58:38.518Z,77.62
2023-01-30T17:01:08.938Z,77.48
2023-01-30T17:03:39.176Z,76.78
2023-01-30T17:06:15.094Z,77.22
2023-01-30T17:08:47.489Z,77.20
2023-01-30T17:11:34.472Z,78.45
2023-01-30T17:14:19.557Z,77.64
2023-01-30T17:17:08.594Z,78.35
2023-01-30T17:19:36.137Z,77.86
2023-01-30T17:22:06.176Z,77.54
2023-01-30T17:24:32.796Z,77.69
2023-01-30T17:27:04.448Z,77.82
2023-01-30T17:29:42.470Z,78.86
2023-01-30T17:32:15.364Z,79.15
2023-01-30T17:34:42.320Z,79.64
2023-01-30T17:37:15.417Z,79.41
2023-01-30T17:39:42.088Z,79.38
2023-01-30T17:42:13.216Z,79.60
2023-01-30T17:44:40.740Z,79.86
2023-01-30T17:47:11.051Z,85.60
2023-01-30T17:49:37.681Z,82.85
2023-01-30T17:52:07.276Z,82.53
2023-01-30T17:54:33.831Z,82.31
2023-01-30T17:57:05.918Z,82.12
2023-01-30T17:59:33.539Z,81.73
2023-01-30T18:02:00.906Z,81.19
2023-01-30T18:04:27.451Z,81.92
2023-01-30T18:07:03.439Z,81.27
2023-01-30T18:09:32.631Z,80.82
2023-01-30T18:12:02.086Z,80.90
2023-01-30T18:14:32.584Z,80.87
2023-01-30T18:17:02.885Z,80.56
2023-01-30T18:19:32.633Z,80.98
2023-01-30T18:22:02.036Z,81.28
2023-01-30T18:24:33.358Z,81.89
2023-01-30T18:27:05.915Z,81.83
2023-01-30T18:29:34.337Z,82.01
2023-01-30T18:32:05.854Z,82.51
2023-01-30T18:34:34.012Z,82.82
2023-01-30T18:37:00.728Z,82.45
2023-01-30T18:39:30.408Z,81.60
2023-01-30T18:42:04.059Z,82.15
2023-01-30T18:44:33.790Z,81.79
2023-01-30T18:47:05.804Z,81.93
2023-01-30T18:49:32.449Z,82.22
2023-01-30T18:52:02.013Z,82.94
2023-01-30T18:54:30.975Z,83.35
2023-01-30T18:57:35.699Z,83.72
2023-01-30T19:00:03.722Z,84.12
2023-01-30T19:02:31.796Z,84.25
2023-01-30T19:05:01.343Z,83.15
2023-01-30T19:08:06.446Z,82.96
2023-01-30T19:10:35.735Z,83.56
2023-01-30T19:13:21.138Z,83.43
2023-01-30T19:16:39.109Z,83.91
2023-01-30T19:19:08.072Z,83.84
2023-01-30T19:21:35.736Z,82.98
2023-01-30T19:24:13.552Z,83.21
2023-01-30T19:26:40.582Z,83.15
2023-01-30T19:29:07.084Z,82.68
2023-01-30T19:31:33.808Z,82.95
2023-01-30T19:34:02.786Z,84.07
2023-01-30T19:36:34.255Z,84.26
2023-01-30T19:39:05.919Z,85.12
2023-01-30T19:41:35.006Z,86.37
2023-01-30T19:44:07.027Z,87.61
2023-01-30T19:46:33.820Z,88.71
2023-01-30T19:49:04.454Z,90.12
2023-01-30T19:51:34.224Z,91.63
2023-01-30T19:54:06.517Z,93.13
2023-01-30T19:56:33.699Z,94.46
2023-01-30T19:59:02.414Z,96.18
2023-01-30T20:01:37.619Z,98.02
2023-01-30T20:04:05.213Z,100.00
2023-01-30T20:06:36.275Z,100.00
2023-01-30T20:09:10.005Z,100.00
2023-01-30T20:11:38.419Z,100.00
2023-01-30T20:14:06.978Z,100.00
2023-01-30T20:16:36.740Z,100.00
2023-01-30T20:19:11.577Z,100.00
2023-01-30T20:21:38.164Z,100.00
2023-01-30T20:24:05.293Z,100.00
2023-01-30T20:26:39.462Z,100.00
2023-01-30T20:29:08.053Z,100.00
2023-01-30T20:31:35.114Z,100.00
2023-01-30T20:34:07.708Z,100.00
2023-01-30T20:36:34.712Z,100.00
2023-01-30T20:39:06.412Z,100.00
2023-01-30T20:41:35.577Z,100.00
2023-01-30T20:44:02.716Z,100.00
2023-01-30T20:46:44.437Z,100.00
2023-01-30T20:49:19.802Z,100.00
2023-01-30T20:51:47.624Z,100.00
2023-01-30T20:54:14.814Z,100.00
2023-01-30T20:56:46.850Z,100.00
2023-01-30T20:59:15.890Z,100.00
2023-01-30T21:02:03.123Z,100.00
2023-01-30T21:04:33.378Z,100.00
2023-01-30T21:07:01.944Z,100.00
2023-01-30T21:09:32.451Z,100.00
2023-01-30T21:12:02.385Z,100.00
2023-01-30T21:14:30.256Z,100.00
2023-01-30T21:16:57.300Z,100.00
2023-01-30T21:19:24.175Z,100.00
2023-01-30T21:21:54.276Z,100.00
2023-01-30T21:24:27.224Z,100.00
2023-01-30T21:26:55.389Z,100.00
2023-01-30T21:29:25.280Z,100.00
2023-01-30T21:31:52.364Z,100.00
2023-01-30T21:34:18.973Z,100.00
2023-01-30T21:37:05.455Z,100.00
2023-01-30T21:39:53.537Z,100.00
2023-01-30T21:42:39.261Z,100.00
2023-01-30T21:45:06.834Z,100.00
2023-01-30T21:47:33.486Z,100.00
2023-01-30T21:49:59.929Z,100.00
2023-01-30T21:52:26.361Z,100.00
2023-01-30T21:54:52.855Z,100.00
2023-01-30T21:57:19.323Z,100.00
2023-01-30T21:59:46.099Z,100.00
2023-01-30T22:02:12.509Z,100.00
2023-01-30T22:04:39.035Z,100.00
2023-01-30T22:07:06.948Z,100.00
2023-01-30T22:09:36.679Z,100.00
2023-01-30T22:12:06.143Z,100.00
2023-01-30T22:14:35.247Z,100.00
2023-01-30T22:17:01.864Z,100.00
2023-01-30T22:19:35.174Z,100.00
2023-01-30T22:22:05.074Z,100.00
2023-01-30T22:24:31.705Z,100.00
2023-01-30T22:26:58.799Z,100.00
2023-01-30T22:29:25.312Z,100.00
2023-01-30T22:31:51.870Z,100.00
2023-01-30T22:34:18.661Z,100.00
2023-01-30T22:36:45.091Z,100.00
2023-01-30T22:39:11.601Z,100.00
2023-01-30T22:41:40.804Z,100.00
2023-01-30T22:44:09.160Z,100.00
2023-01-30T22:46:37.538Z,100.00
2023-01-30T22:49:06.030Z,100.00
2023-01-30T22:51:38.656Z,100.00
2023-01-30T22:54:10.747Z,100.00
2023-01-30T22:56:40.754Z,100.00
2023-01-30T22:59:08.184Z,100.00
2023-01-30T23:01:38.328Z,100.00
2023-01-30T23:04:08.025Z,100.00
2023-01-30T23:06:34.557Z,100.00
2023-01-30T23:09:01.408Z,100.00
2023-01-30T23:11:39.660Z,100.00
2023-01-30T23:14:10.388Z,100.00
2023-01-30T23:16:40.269Z,100.00
2023-01-30T23:19:08.397Z,100.00
2023-01-30T23:21:43.856Z,100.00
2023-01-30T23:24:16.240Z,100.00
2023-01-30T23:26:47.186Z,100.00
2023-01-30T23:29:15.598Z,100.00
2023-01-30T23:31:44.067Z,100.00
2023-01-30T23:34:13.990Z,100.00
2023-01-30T23:36:40.611Z,100.00
2023-01-30T23:39:11.944Z,100.00
2023-01-30T23:41:44.220Z,100.00
2023-01-30T23:44:10.906Z,100.00
2023-01-30T23:46:40.695Z,100.00
2023-01-30T23:49:10.181Z,100.00
2023-01-30T23:51:41.326Z,100.00
2023-01-30T23:54:12.095Z,100.00
2023-01-30T23:56:41.949Z,100.00
2023-01-30T23:59:11.749Z,100.00
